createdAt,value
2018-04-08T00:01:22.869Z,12.60
2018-04-08T00:03:51.827Z,13.93
2018-04-08T00:06:21.501Z,13.10
2018-04-08T00:08:50.417Z,12.97
2018-04-08T00:11:20.117Z,13.77
2018-04-08T00:13:49.033Z,12.03
2018-04-08T00:16:18.953Z,12.80
2018-04-08T00:18:47.860Z,14.00
2018-04-08T00:21:16.779Z,14.33
2018-04-08T00:23:46.469Z,13.67
2018-04-08T00:26:16.143Z,13.63
2018-04-08T00:28:46.497Z,13.47
2018-04-08T00:31:15.804Z,18.87
2018-04-08T00:33:46.179Z,14.10
2018-04-08T00:36:15.871Z,11.73
2018-04-08T00:38:45.468Z,14.17
2018-04-08T00:41:14.375Z,15.20
2018-04-08T00:43:44.086Z,15.90
2018-04-08T00:46:13.389Z,15.20
2018-04-08T00:48:43.082Z,15.80
2018-04-08T00:51:12.005Z,12.17
2018-04-08T00:53:40.920Z,15.47
2018-04-08T00:56:10.975Z,12.67
2018-04-08T00:58:39.875Z,14.53
2018-04-08T01:01:08.819Z,14.53
2018-04-08T01:03:38.166Z,15.90
2018-04-08T01:06:07.077Z,13.67
2018-04-08T01:08:36.759Z,15.90
2018-04-08T01:11:05.675Z,14.17
2018-04-08T01:13:35.369Z,14.23
2018-04-08T01:16:04.699Z,14.10
2018-04-08T01:18:34.012Z,13.20
2018-04-08T01:21:02.915Z,13.07
2018-04-08T01:23:31.824Z,14.80
2018-04-08T01:26:00.753Z,13.63
2018-04-08T01:28:30.427Z,13.83
2018-04-08T01:30:59.352Z,18.50
2018-04-08T01:33:29.059Z,17.30
2018-04-08T01:35:58.728Z,14.87
2018-04-08T01:38:27.631Z,14.00
2018-04-08T01:40:56.559Z,15.17
2018-04-08T01:43:25.474Z,14.40
2018-04-08T01:45:54.932Z,13.97
2018-04-08T01:48:24.614Z,14.80
2018-04-08T01:50:55.467Z,16.60
2018-04-08T01:53:24.786Z,13.43
2018-04-08T01:55:54.087Z,12.57
2018-04-08T01:58:23.808Z,16.03
2018-04-08T02:00:52.715Z,11.63
2018-04-08T02:03:21.630Z,12.13
2018-04-08T02:05:50.548Z,13.53
2018-04-08T02:08:19.457Z,12.97
2018-04-08T02:10:49.143Z,12.23
2018-04-08T02:13:18.065Z,15.40
2018-04-08T02:15:47.757Z,14.40
2018-04-08T02:18:17.469Z,15.70
2018-04-08T02:20:47.140Z,20.10
2018-04-08T02:23:16.040Z,15.67
2018-04-08T02:25:45.708Z,13.07
2018-04-08T02:28:15.938Z,16.43
2018-04-08T02:30:44.888Z,14.03
2018-04-08T02:33:14.821Z,15.10
2018-04-08T02:35:43.727Z,16.90
2018-04-08T02:38:12.653Z,12.97
2018-04-08T02:40:41.574Z,14.80
2018-04-08T02:43:10.916Z,14.90
2018-04-08T02:45:40.590Z,14.53
2018-04-08T02:48:09.492Z,13.73
2018-04-08T02:50:38.423Z,13.47
2018-04-08T02:53:07.322Z,13.70
2018-04-08T02:55:37.671Z,15.40
2018-04-08T02:58:07.343Z,15.80
2018-04-08T03:00:37.104Z,11.90
2018-04-08T03:03:05.954Z,14.17
2018-04-08T03:05:35.621Z,12.90
2018-04-08T03:08:04.547Z,13.50
2018-04-08T03:10:34.704Z,12.90
2018-04-08T03:13:04.380Z,13.67
2018-04-08T03:15:33.307Z,15.80
2018-04-08T03:18:02.208Z,13.77
2018-04-08T03:20:31.737Z,13.20
2018-04-08T03:23:00.646Z,15.27
2018-04-08T03:25:29.539Z,15.90
2018-04-08T03:27:58.472Z,16.00
2018-04-08T03:30:28.146Z,13.97
2018-04-08T03:32:57.060Z,14.03
2018-04-08T03:35:26.657Z,17.67
2018-04-08T03:37:55.608Z,15.20
2018-04-08T03:40:24.528Z,13.43
2018-04-08T03:42:54.671Z,13.90
2018-04-08T03:45:23.677Z,13.90
2018-04-08T03:47:53.355Z,12.60
2018-04-08T03:50:22.613Z,13.57
2018-04-08T03:52:51.533Z,14.00
2018-04-08T03:55:20.875Z,13.20
2018-04-08T03:57:50.960Z,12.80
2018-04-08T04:02:57.058Z,15.33
2018-04-08T04:05:26.877Z,15.37
2018-04-08T04:07:55.778Z,13.70
2018-04-08T04:10:24.859Z,13.07
2018-04-08T04:12:55.329Z,13.53
2018-04-08T04:17:59.188Z,14.33
2018-04-08T04:20:39.869Z,14.50
2018-04-08T04:23:21.442Z,12.43
2018-04-08T04:26:03.209Z,14.33
2018-04-08T04:28:32.143Z,13.83
2018-04-08T04:31:01.854Z,12.40
2018-04-08T04:33:31.519Z,15.00
2018-04-08T04:36:00.474Z,18.23
2018-04-08T04:38:29.373Z,15.73
2018-04-08T04:40:58.332Z,14.40
2018-04-08T04:43:27.236Z,13.07
2018-04-08T04:45:56.528Z,12.80
2018-04-08T04:48:26.716Z,17.13
2018-04-08T04:50:56.387Z,16.70
2018-04-08T04:53:25.444Z,16.07
2018-04-08T04:55:55.117Z,14.67
2018-04-08T04:58:24.016Z,15.73
2018-04-08T05:00:53.654Z,14.77
2018-04-08T05:03:23.358Z,12.97
2018-04-08T05:05:52.266Z,14.50
2018-04-08T05:08:21.193Z,15.40
2018-04-08T05:10:50.114Z,15.90
2018-04-08T05:13:19.042Z,12.73
2018-04-08T05:15:48.717Z,15.17
2018-04-08T05:18:17.630Z,14.67
2018-04-08T05:20:46.572Z,11.70
2018-04-08T05:23:15.470Z,16.17
2018-04-08T05:25:45.148Z,16.37
2018-04-08T05:28:14.061Z,17.00
2018-04-08T05:30:44.489Z,15.70
2018-04-08T05:33:13.394Z,15.83
2018-04-08T05:35:42.407Z,13.27
2018-04-08T05:38:11.327Z,17.50
2018-04-08T05:40:40.999Z,12.60
2018-04-08T05:43:10.714Z,15.63
2018-04-08T05:45:39.618Z,16.60
2018-04-08T05:48:10.286Z,16.30
2018-04-08T05:50:39.216Z,12.70
2018-04-08T05:53:08.890Z,17.30
2018-04-08T05:55:38.204Z,16.10
2018-04-08T05:58:07.180Z,13.07
2018-04-08T06:00:36.066Z,14.77
2018-04-08T06:03:04.976Z,13.77
2018-04-08T06:05:33.999Z,13.10
2018-04-08T06:08:02.876Z,14.33
2018-04-08T06:10:35.029Z,13.30
2018-04-08T06:13:03.931Z,13.60
2018-04-08T06:15:36.862Z,12.40
2018-04-08T06:18:06.395Z,14.80
2018-04-08T06:20:35.300Z,17.33
2018-04-08T06:23:05.664Z,13.37
2018-04-08T06:25:34.955Z,14.33
2018-04-08T06:28:03.926Z,12.07
2018-04-08T06:30:32.957Z,12.67
2018-04-08T06:33:01.925Z,10.83
2018-04-08T06:35:30.885Z,12.10
2018-04-08T06:38:00.277Z,15.90
2018-04-08T06:40:29.289Z,15.83
2018-04-08T06:42:58.207Z,13.37
2018-04-08T06:45:28.421Z,12.80
2018-04-08T06:47:58.160Z,12.90
2018-04-08T06:50:27.810Z,10.90
2018-04-08T06:52:56.757Z,10.93
2018-04-08T06:55:26.404Z,13.00
2018-04-08T06:57:55.354Z,12.43
2018-04-08T07:00:24.890Z,11.33
2018-04-08T07:02:53.838Z,10.40
2018-04-08T07:05:23.518Z,11.77
2018-04-08T07:07:52.484Z,12.37
2018-04-08T07:10:21.416Z,9.53
2018-04-08T07:12:52.608Z,10.67
2018-04-08T07:15:22.884Z,10.30
2018-04-08T07:17:51.792Z,10.47
2018-04-08T07:20:20.795Z,11.10
2018-04-08T07:22:50.690Z,11.60
2018-04-08T07:25:20.287Z,9.90
2018-04-08T07:27:50.004Z,9.07
2018-04-08T07:30:19.662Z,11.00
2018-04-08T07:32:48.694Z,12.20
2018-04-08T07:35:19.630Z,8.93
2018-04-08T07:37:48.622Z,11.40
2018-04-08T07:40:17.614Z,10.10
2018-04-08T07:42:46.508Z,10.27
2018-04-08T07:45:16.213Z,10.57
2018-04-08T07:47:45.877Z,8.87
2018-04-08T07:50:15.570Z,9.20
2018-04-08T07:52:44.476Z,10.20
2018-04-08T07:55:13.392Z,10.40
2018-04-08T07:57:42.315Z,10.77
2018-04-08T08:00:11.223Z,10.70
2018-04-08T08:02:40.452Z,10.03
2018-04-08T08:05:10.274Z,8.20
2018-04-08T08:07:39.199Z,8.73
2018-04-08T08:10:09.346Z,10.13
2018-04-08T08:12:38.796Z,9.73
2018-04-08T08:15:08.501Z,10.80
2018-04-08T08:17:39.663Z,10.43
2018-04-08T08:20:08.560Z,10.53
2018-04-08T08:22:38.251Z,8.90
2018-04-08T08:25:07.179Z,11.50
2018-04-08T08:27:36.393Z,10.60
2018-04-08T08:30:07.151Z,11.97
2018-04-08T08:32:36.779Z,10.80
2018-04-08T08:35:06.135Z,10.70
2018-04-08T08:37:35.049Z,11.63
2018-04-08T08:40:04.740Z,13.30
2018-04-08T08:42:33.721Z,11.10
2018-04-08T08:45:02.645Z,12.27
2018-04-08T08:47:31.603Z,11.30
2018-04-08T08:50:01.896Z,12.43
2018-04-08T08:52:32.190Z,13.23
2018-04-08T08:55:01.472Z,13.13
2018-04-08T08:57:30.373Z,14.17
2018-04-08T09:00:00.380Z,16.83
2018-04-08T09:02:29.317Z,12.43
2018-04-08T09:05:00.039Z,12.00
2018-04-08T09:07:29.132Z,11.40
2018-04-08T09:09:58.462Z,12.30
2018-04-08T09:12:27.392Z,13.63
2018-04-08T09:14:56.721Z,14.07
2018-04-08T09:17:26.452Z,15.67
2018-04-08T09:20:00.214Z,19.23
2018-04-08T09:35:52.464Z,13.80
2018-04-08T09:38:21.383Z,13.30
2018-04-08T09:40:51.453Z,17.10
2018-04-08T09:43:21.145Z,15.77
2018-04-08T09:45:50.072Z,15.77
2018-04-08T09:48:18.998Z,15.80
2018-04-08T09:50:47.908Z,14.53
2018-04-08T09:53:16.849Z,20.10
2018-04-08T09:55:46.552Z,18.00
2018-04-08T09:58:34.168Z,15.90
2018-04-08T10:14:26.380Z,18.23
2018-04-08T10:16:56.092Z,15.90
2018-04-08T10:19:25.777Z,16.77
2018-04-08T10:21:54.693Z,14.17
2018-04-08T10:24:24.006Z,17.47
2018-04-08T10:26:53.353Z,21.03
2018-04-08T10:29:23.384Z,17.27
2018-04-08T10:31:52.400Z,16.10
2018-04-08T10:34:22.064Z,20.40
2018-04-08T10:36:50.976Z,14.90
2018-04-08T10:39:19.905Z,17.33
2018-04-08T10:41:48.839Z,15.37
2018-04-08T10:44:17.800Z,16.73
2018-04-08T10:46:46.737Z,14.17
2018-04-08T10:49:16.105Z,16.20
2018-04-08T10:51:45.062Z,15.00
2018-04-08T10:54:14.767Z,15.40
2018-04-08T10:56:44.470Z,18.97
2018-04-08T10:59:14.741Z,14.67
2018-04-08T11:01:43.685Z,19.07
2018-04-08T11:04:14.482Z,18.60
2018-04-08T11:06:43.816Z,15.23
2018-04-08T11:09:13.541Z,17.00
2018-04-08T11:11:43.150Z,18.17
2018-04-08T11:14:14.745Z,18.17
2018-04-08T11:16:43.679Z,16.40
2018-04-08T11:19:13.347Z,17.37
2018-04-08T11:21:42.792Z,18.03
2018-04-08T11:24:12.535Z,15.47
2018-04-08T11:26:41.489Z,16.63
2018-04-08T11:29:10.440Z,13.00
2018-04-08T11:31:39.380Z,15.40
2018-04-08T11:34:08.321Z,13.60
2018-04-08T11:36:37.293Z,16.40
2018-04-08T11:39:06.212Z,13.87
2018-04-08T11:41:35.171Z,13.63
2018-04-08T11:44:04.129Z,13.63
2018-04-08T11:46:35.224Z,16.23
2018-04-08T11:49:04.189Z,13.40
2018-04-08T11:51:34.897Z,16.80
2018-04-08T11:54:05.233Z,16.97
2018-04-08T11:56:34.201Z,15.60
2018-04-08T11:59:03.095Z,17.50
2018-04-08T12:01:32.024Z,16.83
2018-04-08T12:04:00.960Z,15.63
2018-04-08T12:06:30.648Z,16.50
2018-04-08T12:08:59.567Z,15.90
2018-04-08T12:11:30.607Z,14.13
2018-04-08T12:14:00.319Z,14.43
2018-04-08T12:16:30.272Z,15.17
2018-04-08T12:18:59.183Z,13.60
2018-04-08T12:21:28.107Z,11.60
2018-04-08T12:23:57.795Z,11.27
2018-04-08T12:26:27.522Z,11.60
2018-04-08T12:28:57.179Z,12.23
2018-04-08T12:31:27.336Z,12.73
2018-04-08T12:33:56.348Z,14.53
2018-04-08T12:36:25.234Z,14.60
2018-04-08T12:38:54.948Z,13.20
2018-04-08T12:41:24.634Z,10.47
2018-04-08T12:43:53.910Z,11.93
2018-04-08T12:46:22.825Z,13.73
2018-04-08T12:48:51.737Z,16.13
2018-04-08T12:51:21.407Z,11.00
2018-04-08T12:53:50.445Z,12.87
2018-04-08T12:56:20.113Z,20.63
2018-04-08T12:58:49.852Z,13.07
2018-04-08T13:01:18.803Z,14.33
2018-04-08T13:03:47.679Z,12.20
2018-04-08T13:06:16.605Z,13.30
2018-04-08T13:08:45.817Z,11.60
2018-04-08T13:11:15.233Z,12.07
2018-04-08T13:13:44.184Z,12.23
2018-04-08T13:16:13.115Z,11.10
2018-04-08T13:18:42.036Z,11.67
2018-04-08T13:21:11.702Z,12.80
2018-04-08T13:23:41.562Z,13.33
2018-04-08T13:26:10.456Z,12.73
2018-04-08T13:28:39.360Z,12.37
2018-04-08T13:31:09.081Z,10.87
2018-04-08T13:33:37.972Z,13.50
2018-04-08T13:36:06.899Z,13.03
2018-04-08T13:38:35.876Z,11.37
2018-04-08T13:41:04.773Z,10.40
2018-04-08T13:43:33.720Z,10.10
2018-04-08T13:46:02.853Z,13.13
2018-04-08T13:48:32.545Z,11.60
2018-04-08T13:51:02.212Z,10.67
2018-04-08T13:53:31.135Z,11.47
2018-04-08T13:56:00.093Z,9.03
2018-04-08T13:58:28.980Z,7.47
2018-04-08T14:00:57.927Z,14.40
2018-04-08T14:03:26.917Z,11.07
2018-04-08T14:05:55.811Z,11.80
2018-04-08T14:08:25.492Z,7.90
2018-04-08T14:10:56.248Z,10.10
2018-04-08T14:13:25.933Z,8.97
2018-04-08T14:15:54.842Z,10.67
2018-04-08T14:18:24.492Z,11.47
2018-04-08T14:20:53.426Z,10.17
2018-04-08T14:23:22.325Z,11.03
2018-04-08T14:25:52.047Z,11.57
2018-04-08T14:28:21.350Z,9.67
2018-04-08T14:30:51.022Z,12.57
2018-04-08T14:33:20.041Z,11.97
2018-04-08T14:35:49.712Z,9.30
2018-04-08T14:38:18.645Z,9.40
2018-04-08T14:40:47.536Z,8.43
2018-04-08T14:43:17.207Z,12.53
2018-04-08T14:45:47.940Z,8.03
2018-04-08T14:48:16.850Z,9.03
2018-04-08T14:50:45.860Z,10.70
2018-04-08T14:53:15.573Z,14.53
2018-04-08T14:55:44.490Z,8.40
2018-04-08T14:58:13.393Z,9.33
2018-04-08T15:00:42.449Z,9.07
2018-04-08T15:03:11.730Z,10.60
2018-04-08T15:05:41.073Z,9.03
2018-04-08T15:08:10.784Z,7.93
2018-04-08T15:10:40.557Z,8.97
2018-04-08T15:13:09.499Z,10.17
2018-04-08T15:15:40.001Z,12.20
2018-04-08T15:18:10.111Z,11.10
2018-04-08T15:20:42.151Z,14.30
2018-04-08T15:23:11.480Z,13.07
2018-04-08T15:25:40.785Z,10.63
2018-04-08T15:28:10.632Z,10.10
2018-04-08T15:30:39.927Z,11.60
2018-04-08T15:33:09.286Z,12.53
2018-04-08T15:35:38.466Z,11.80
2018-04-08T15:38:08.278Z,9.37
2018-04-08T15:40:37.237Z,11.13
2018-04-08T15:43:06.160Z,13.37
2018-04-08T15:45:35.888Z,12.67
2018-04-08T15:48:05.635Z,13.80
2018-04-08T15:50:36.137Z,10.47
2018-04-08T15:53:06.406Z,11.87
2018-04-08T15:55:37.582Z,14.17
2018-04-08T15:58:06.503Z,11.03
2018-04-08T16:00:37.739Z,12.90
2018-04-08T16:03:07.038Z,10.60
2018-04-08T16:05:37.199Z,12.27
2018-04-08T16:08:06.910Z,11.20
2018-04-08T16:10:36.126Z,11.77
2018-04-08T16:13:06.242Z,9.83
2018-04-08T16:15:35.973Z,12.30
2018-04-08T16:18:07.553Z,11.97
2018-04-08T16:20:37.179Z,10.73
2018-04-08T16:23:06.123Z,12.63
2018-04-08T16:25:36.294Z,10.73
2018-04-08T16:28:05.244Z,12.30
2018-04-08T16:30:34.182Z,12.50
2018-04-08T16:33:04.051Z,11.23
2018-04-08T16:35:33.415Z,9.93
2018-04-08T16:38:03.099Z,10.77
2018-04-08T16:40:32.432Z,11.33
2018-04-08T16:43:01.644Z,9.47
2018-04-08T16:45:30.580Z,10.17
2018-04-08T16:48:01.196Z,8.63
2018-04-08T16:50:30.726Z,9.80
2018-04-08T16:52:59.736Z,11.80
2018-04-08T16:55:30.303Z,9.63
2018-04-08T16:58:00.026Z,11.67
2018-04-08T17:00:29.003Z,12.07
2018-04-08T17:02:57.948Z,13.00
2018-04-08T17:05:26.910Z,13.87
2018-04-08T17:07:57.297Z,13.30
2018-04-08T17:10:32.876Z,11.97
2018-04-08T17:13:02.620Z,12.60
2018-04-08T17:15:32.887Z,13.43
2018-04-08T17:18:02.755Z,12.63
2018-04-08T17:20:33.511Z,8.70
2018-04-08T17:23:03.277Z,12.17
2018-04-08T17:25:33.374Z,11.13
2018-04-08T17:28:03.514Z,11.73
2018-04-08T17:30:33.239Z,9.73
2018-04-08T17:33:03.328Z,10.77
2018-04-08T17:35:32.275Z,9.87
2018-04-08T17:38:03.603Z,11.80
2018-04-08T17:40:33.290Z,8.83
2018-04-08T17:43:02.181Z,9.93
2018-04-08T17:45:33.237Z,9.67
2018-04-08T17:48:02.903Z,9.83
2018-04-08T17:50:31.813Z,8.13
2018-04-08T17:53:01.112Z,7.20
2018-04-08T17:55:30.043Z,7.03
2018-04-08T17:57:58.984Z,8.40
2018-04-08T18:00:27.913Z,5.90
2018-04-08T18:02:57.592Z,7.87
2018-04-08T18:05:26.576Z,9.10
2018-04-08T18:07:55.489Z,7.57
2018-04-08T18:10:25.201Z,6.80
2018-04-08T18:12:54.110Z,8.00
2018-04-08T18:15:23.033Z,7.00
2018-04-08T18:17:52.335Z,12.37
2018-04-08T18:20:22.391Z,8.63
2018-04-08T18:22:51.394Z,11.30
2018-04-08T18:25:20.309Z,8.70
2018-04-08T18:27:49.271Z,7.77
2018-04-08T18:30:18.262Z,6.80
2018-04-08T18:32:47.181Z,10.03
2018-04-08T18:35:16.144Z,6.93
2018-04-08T18:37:45.095Z,7.33
2018-04-08T18:40:14.011Z,8.77
2018-04-08T18:42:43.052Z,11.70
2018-04-08T18:45:13.136Z,10.30
2018-04-08T18:47:42.815Z,9.13
2018-04-08T18:50:11.846Z,8.73
2018-04-08T18:52:41.511Z,7.47
2018-04-08T18:55:10.484Z,7.57
2018-04-08T18:57:39.385Z,8.70
2018-04-08T19:00:08.707Z,8.60
2018-04-08T19:02:37.643Z,9.90
2018-04-08T19:05:06.649Z,11.73
2018-04-08T19:07:35.617Z,12.27
2018-04-08T19:10:04.604Z,14.33
2018-04-08T19:12:34.747Z,12.80
2018-04-08T19:15:09.835Z,10.33
2018-04-08T19:17:45.114Z,13.83
2018-04-08T19:20:15.442Z,15.80
2018-04-08T19:22:44.383Z,14.33
2018-04-08T19:25:14.924Z,18.77
2018-04-08T19:27:45.223Z,15.90
2018-04-08T19:30:20.417Z,15.40
2018-04-08T19:32:49.389Z,15.77
2018-04-08T19:35:19.407Z,15.60
2018-04-08T19:37:49.147Z,16.67
2018-04-08T19:40:19.382Z,18.90
2018-04-08T19:42:50.052Z,15.23
2018-04-08T19:45:19.443Z,15.70
2018-04-08T19:47:48.446Z,15.77
2018-04-08T19:50:19.107Z,19.17
2018-04-08T19:52:48.115Z,17.37
2018-04-08T19:55:17.811Z,20.07
2018-04-08T19:57:48.243Z,24.23
2018-04-08T20:00:17.200Z,23.87
2018-04-08T20:02:46.939Z,23.43
2018-04-08T20:05:15.885Z,21.33
2018-04-08T20:07:45.586Z,20.17
2018-04-08T20:10:15.331Z,22.40
2018-04-08T20:12:44.274Z,22.70
2018-04-08T20:15:13.999Z,18.07
2018-04-08T20:17:42.950Z,22.60
2018-04-08T20:20:11.911Z,23.97
2018-04-08T20:22:41.596Z,24.07
2018-04-08T20:25:11.335Z,20.97
2018-04-08T20:27:40.302Z,25.63
2018-04-08T20:30:10.035Z,23.47
2018-04-08T20:32:38.964Z,24.50
2018-04-08T20:35:08.679Z,24.50
2018-04-08T20:37:38.420Z,24.57
2018-04-08T20:40:07.928Z,25.53
2018-04-08T20:42:37.637Z,26.20
2018-04-08T20:45:07.368Z,21.80
2018-04-08T20:47:37.068Z,27.20
2018-04-08T20:50:07.180Z,26.10
2018-04-08T20:52:36.980Z,23.10
2018-04-08T20:55:06.716Z,26.40
2018-04-08T20:57:35.643Z,25.90
2018-04-08T21:00:04.545Z,24.80
2018-04-08T21:02:33.499Z,28.67
2018-04-08T21:05:02.473Z,24.40
2018-04-08T21:07:32.196Z,25.47
2018-04-08T21:10:01.151Z,33.93
2018-04-08T21:12:30.811Z,26.93
2018-04-08T21:14:59.756Z,27.90
2018-04-08T21:17:29.445Z,27.30
2018-04-08T21:19:59.138Z,30.37
2018-04-08T21:22:28.460Z,24.73
2018-04-08T21:24:58.142Z,26.40
2018-04-08T21:27:27.167Z,27.10
2018-04-08T21:29:56.065Z,25.50
2018-04-08T21:32:25.766Z,27.10
2018-04-08T21:34:55.458Z,28.50
2018-04-08T21:37:24.368Z,24.70
2018-04-08T21:39:54.175Z,29.10
2018-04-08T21:42:23.836Z,25.00
2018-04-08T21:44:52.741Z,27.20
2018-04-08T21:47:21.661Z,29.70
2018-04-08T21:49:51.341Z,24.90
2018-04-08T21:52:20.264Z,27.10
2018-04-08T21:54:49.955Z,28.50
2018-04-08T21:57:19.650Z,26.10
2018-04-08T21:59:48.586Z,25.40
2018-04-08T22:02:17.562Z,31.00
2018-04-08T22:04:46.893Z,29.47
2018-04-08T22:07:15.850Z,28.90
2018-04-08T22:09:44.740Z,28.60
2018-04-08T22:12:14.552Z,32.27
2018-04-08T22:14:43.443Z,32.93
2018-04-08T22:17:13.151Z,28.77
2018-04-08T22:19:42.821Z,30.60
2018-04-08T22:22:11.735Z,28.80
2018-04-08T22:24:41.152Z,29.30
2018-04-08T22:27:10.803Z,30.07
2018-04-08T22:29:39.714Z,28.57
2018-04-08T22:32:08.621Z,26.90
2018-04-08T22:34:37.601Z,29.00
2018-04-08T22:37:06.644Z,29.97
2018-04-08T22:39:35.613Z,39.33
2018-04-08T22:42:04.891Z,38.27
2018-04-08T22:44:33.845Z,39.00
2018-04-08T22:47:02.743Z,29.87
2018-04-08T22:49:31.645Z,32.67
2018-04-08T22:52:00.970Z,30.63
2018-04-08T22:54:30.279Z,35.07
2018-04-08T22:56:59.972Z,32.37
2018-04-08T22:59:28.874Z,32.10
2018-04-08T23:01:58.169Z,34.33
2018-04-08T23:04:27.502Z,34.27
2018-04-08T23:06:56.416Z,34.37
2018-04-08T23:09:25.366Z,36.23
2018-04-08T23:11:54.265Z,37.10
2018-04-08T23:14:23.565Z,34.50
2018-04-08T23:16:52.494Z,37.63
2018-04-08T23:19:22.191Z,38.77
2018-04-08T23:21:51.091Z,37.53
2018-04-08T23:24:20.027Z,37.27
2018-04-08T23:26:49.696Z,33.07
2018-04-08T23:29:18.637Z,38.27
2018-04-08T23:31:48.069Z,34.73
2018-04-08T23:34:16.979Z,39.27
2018-04-08T23:36:46.304Z,34.23
2018-04-08T23:39:15.603Z,35.80
2018-04-08T23:41:45.289Z,36.57
2018-04-08T23:44:14.240Z,37.20
2018-04-08T23:46:43.209Z,38.20
2018-04-08T23:49:12.872Z,32.70
2018-04-08T23:51:41.792Z,34.57
2018-04-08T23:54:10.704Z,31.13
2018-04-08T23:56:40.386Z,39.00
2018-04-08T23:59:10.077Z,35.93
